Time;durP1;ratioP1;P1;durP2;ratioP2;P2;SDS_P1;SDS_P2;PMS_P1;PMS_P2;Temp;Humidity;BMP_temperature;BMP_pressure;BME280_temperature;BME280_humidity;BME280_pressure;Samples;Min_cycle;Max_cycle;Signal;HPM_P1;HPM_P2
2022/06/20 00:01:39;;;;;;;6.95;3.15;;;;;;;21.64;60.34;99425.84;10407670;28;20059;-74
2022/06/20 00:06:41;;;;;;;8.98;2.80;;;;;;;21.38;60.75;99428.97;10408216;28;20495;-75
2022/06/20 00:11:46;;;;;;;7.38;2.67;;;;;;;21.28;60.75;99440.56;10406378;28;20084;-75
2022/06/20 00:16:49;;;;;;;5.50;2.75;;;;;;;21.20;60.64;99459.91;10409832;28;20037;-75
2022/06/20 00:21:51;;;;;;;5.65;2.50;;;;;;;21.08;60.21;99472.50;10405355;28;20069;-75
2022/06/20 00:26:53;;;;;;;5.70;3.10;;;;;;;20.70;60.50;99483.69;10423550;28;20037;-74
2022/06/20 00:31:55;;;;;;;5.05;2.67;;;;;;;20.33;60.99;99508.03;10404008;28;20053;-75
2022/06/20 00:36:57;;;;;;;6.40;3.55;;;;;;;20.46;60.52;99520.41;10406070;28;20042;-74
2022/06/20 00:42:01;;;;;;;7.75;2.85;;;;;;;20.44;60.66;99525.84;10405472;28;20061;-75
2022/06/20 00:47:11;;;;;;;5.28;2.97;;;;;;;20.53;60.10;99510.94;10404819;28;20486;-75
2022/06/20 00:52:22;;;;;;;5.15;3.20;;;;;;;20.40;59.41;99501.22;10423280;28;20060;-74
2022/06/20 00:57:32;;;;;;;5.20;2.70;;;;;;;20.24;59.96;99510.59;10423078;28;20041;-75
2022/06/20 01:03:05;;;;;;;5.05;3.13;;;;;;;20.27;59.38;99497.84;10391722;28;20053;-74
2022/06/20 01:08:12;;;;;;;8.20;3.30;;;;;;;20.21;59.48;99490.34;10420732;28;20050;-74
2022/06/20 01:13:16;;;;;;;;;;;;;;;20.26;59.10;99484.63;10421392;28;20037;-75
2022/06/20 01:18:22;;;;;;;6.05;2.88;;;;;;;19.94;60.37;99474.72;10402345;28;19921;-74
2022/06/20 01:23:41;;;;;;;;;;;;;;;20.18;59.56;99458.53;10425224;28;20041;-75
2022/06/20 01:28:47;;;;;;;4.00;2.30;;;;;;;20.31;59.53;99445.06;10421843;28;19990;-74
2022/06/20 01:33:49;;;;;;;4.60;2.57;;;;;;;20.21;59.81;99431.63;10403792;28;20037;-75
2022/06/20 01:38:53;;;;;;;5.10;2.95;;;;;;;20.15;59.80;99432.13;10420127;28;20087;-74
2022/06/20 01:43:58;;;;;;;6.32;2.88;;;;;;;20.12;60.42;99419.88;10424812;28;20037;-75
2022/06/20 01:49:14;;;;;;;6.45;3.08;;;;;;;20.30;60.13;99398.00;10421308;28;20041;-74
2022/06/20 01:54:17;;;;;;;4.88;2.80;;;;;;;20.23;60.52;99370.09;10386164;28;20442;-75
2022/06/20 01:59:31;;;;;;;4.93;3.10;;;;;;;20.21;60.18;99369.41;10418247;28;20064;-74
2022/06/20 02:04:37;;;;;;;5.40;2.75;;;;;;;20.29;60.30;99364.28;10422633;28;20052;-74
2022/06/20 02:09:40;;;;;;;5.27;3.07;;;;;;;20.02;61.12;99362.91;10419191;28;20038;-75
2022/06/20 02:14:54;;;;;;;5.10;3.42;;;;;;;20.20;60.62;99357.88;10418679;28;20038;-74
2022/06/20 02:19:56;;;;;;;4.85;2.72;;;;;;;20.05;61.71;99359.97;10385627;28;20061;-75
2022/06/20 02:25:06;;;;;;;6.18;2.90;;;;;;;20.21;60.98;99367.56;10401640;28;20056;-74
2022/06/20 02:30:09;;;;;;;5.18;3.03;;;;;;;20.19;61.01;99366.88;10405549;28;20498;-74
2022/06/20 02:35:18;;;;;;;6.63;2.63;;;;;;;20.21;61.20;99372.06;10418881;28;20112;-75
2022/06/20 02:40:23;;;;;;;4.20;2.63;;;;;;;20.13;61.37;99378.88;10418784;28;20041;-74
2022/06/20 02:45:27;;;;;;;6.70;3.72;;;;;;;19.92;62.77;99391.28;10419736;28;20041;-74
2022/06/20 02:50:34;;;;;;;5.55;2.88;;;;;;;19.74;63.66;99414.09;10420743;28;20045;-75
2022/06/20 02:55:38;;;;;;;5.32;3.45;;;;;;;19.77;63.14;99392.53;10399546;28;20046;-74
2022/06/20 03:01:01;;;;;;;5.82;2.65;;;;;;;19.86;62.81;99365.97;10416970;28;20046;-74
2022/06/20 03:06:05;;;;;;;7.00;3.33;;;;;;;19.93;63.13;99369.00;10400172;28;20045;-74
2022/06/20 03:11:09;;;;;;;6.60;3.72;;;;;;;19.76;63.87;99378.34;10428567;28;20417;-74
2022/06/20 03:16:13;;;;;;;7.30;2.88;;;;;;;19.94;62.69;99361.84;10408533;28;20063;-75
2022/06/20 03:21:20;;;;;;;5.78;3.03;;;;;;;20.06;62.90;99350.16;10408774;28;20410;-74
2022/06/20 03:26:25;;;;;;;7.60;3.72;;;;;;;20.07;62.64;99357.19;10409267;28;20517;-74
2022/06/20 03:31:26;;;;;;;6.53;3.40;;;;;;;19.97;62.65;99350.94;10425895;28;20048;-74
2022/06/20 03:36:28;;;;;;;6.50;3.88;;;;;;;20.04;63.46;99368.94;10426972;28;20044;-74
2022/06/20 03:41:30;;;;;;;5.90;4.38;;;;;;;19.80;63.82;99378.97;10424941;28;20116;-75
2022/06/20 03:46:45;;;;;;;6.38;3.72;;;;;;;19.52;64.58;99398.91;10407034;28;20104;-75
2022/06/20 03:51:59;;;;;;;16.15;3.92;;;;;;;19.64;64.31;99387.31;10407007;28;20085;-75
2022/06/20 03:57:10;;;;;;;5.70;4.03;;;;;;;19.61;64.15;99383.09;10427901;28;20417;-75
2022/06/20 04:02:24;;;;;;;6.70;3.30;;;;;;;19.53;64.92;99379.31;10425876;28;20514;-75
2022/06/20 04:07:40;;;;;;;7.22;3.08;;;;;;;19.55;64.93;99362.22;10425291;28;20088;-75
2022/06/20 04:13:00;;;;;;;6.07;3.78;;;;;;;19.85;63.78;99342.94;10425461;28;20125;-75
2022/06/20 04:18:27;;;;;;;7.97;4.53;;;;;;;19.82;64.08;99324.50;10407608;28;20077;-75
2022/06/20 04:24:00;;;;;;;5.25;3.67;;;;;;;19.74;63.36;99313.59;10423996;28;20053;-76
2022/06/20 04:29:17;;;;;;;5.22;3.25;;;;;;;19.96;62.63;99317.19;10423263;28;20406;-75
2022/06/20 04:34:26;;;;;;;7.43;3.58;;;;;;;20.15;62.31;99342.25;10424626;28;20037;-75
2022/06/20 04:39:37;;;;;;;6.65;4.20;;;;;;;20.07;61.92;99338.53;10427559;28;20049;-74
2022/06/20 04:44:55;;;;;;;6.10;3.10;;;;;;;20.35;61.44;99313.91;10423175;28;20045;-73
2022/06/20 04:49:58;;;;;;;6.82;3.97;;;;;;;20.48;60.89;99286.22;10404933;28;20072;-75
2022/06/20 04:55:00;;;;;;;7.18;3.83;;;;;;;20.48;60.75;99225.66;10497287;22;20489;-72
2022/06/20 05:00:06;;;;;;;6.88;3.05;;;;;;;20.29;62.85;99265.53;10483970;28;20056;-71
2022/06/20 05:05:15;;;;;;;4.55;3.08;;;;;;;20.44;63.43;99237.53;10535948;28;20040;-69
2022/06/20 05:10:30;;;;;;;7.35;3.38;;;;;;;20.15;63.59;99256.88;10525565;28;20040;-70
2022/06/20 05:15:48;;;;;;;7.75;4.32;;;;;;;19.98;64.27;99244.09;10524561;28;20067;-70
2022/06/20 05:20:54;;;;;;;6.38;3.35;;;;;;;20.44;62.58;99226.84;10525954;28;20497;-69
2022/06/20 05:25:59;;;;;;;8.87;3.40;;;;;;;21.19;59.57;99204.31;10544423;28;20519;-70
2022/06/20 05:31:02;;;;;;;6.40;3.83;;;;;;;21.61;58.44;99228.25;10524823;28;20062;-70
2022/06/20 05:36:12;;;;;;;9.05;3.97;;;;;;;21.48;58.53;99231.16;10542293;28;20135;-70
2022/06/20 05:41:16;;;;;;;8.85;4.32;;;;;;;21.34;59.35;99215.53;10542858;28;20390;-70
2022/06/20 05:46:23;;;;;;;11.50;4.47;;;;;;;22.12;57.46;99219.97;10542172;28;20036;-70
2022/06/20 05:51:27;;;;;;;7.43;3.63;;;;;;;22.03;57.19;99230.66;10539568;28;20581;-70
2022/06/20 05:56:34;;;;;;;8.20;4.25;;;;;;;21.41;59.05;99228.19;10540249;28;20043;-70
2022/06/20 06:01:40;;;;;;;6.68;4.20;;;;;;;21.22;59.47;99237.97;10541437;28;20054;-70
2022/06/20 06:06:47;;;;;;;8.80;4.53;;;;;;;21.01;61.39;99244.19;10541929;28;20066;-70
2022/06/20 06:11:57;;;;;;;6.60;3.63;;;;;;;21.27;60.92;99303.38;10522931;28;20281;-70
2022/06/20 06:17:17;;;;;;;8.80;4.07;;;;;;;20.77;60.85;99386.06;10540953;28;20373;-71
2022/06/20 06:22:45;;;;;;;5.50;3.25;;;;;;;20.31;62.15;99328.47;10541005;28;20040;-70
2022/06/20 06:27:49;;;;;;;14.07;3.72;;;;;;;20.30;61.04;99381.97;10540768;28;20044;-71
2022/06/20 06:33:07;;;;;;;6.40;2.60;;;;;;;20.59;60.53;99403.66;10539709;28;20520;-71
2022/06/20 06:38:19;;;;;;;8.35;2.97;;;;;;;19.83;61.37;99379.56;10539906;28;20047;-71
2022/06/20 06:43:27;;;;;;;6.97;3.47;;;;;;;19.58;62.31;99383.31;10539073;28;20048;-70
2022/06/20 06:49:07;;;;;;;8.80;3.42;;;;;;;20.27;60.90;99372.41;10540297;28;20393;-71
2022/06/20 06:54:18;;;;;;;8.95;3.97;;;;;;;20.22;60.20;99387.94;10520937;28;20126;-70
2022/06/20 06:59:27;;;;;;;8.30;4.20;;;;;;;20.14;59.85;99409.06;10539596;28;20059;-71
2022/06/20 07:04:39;;;;;;;8.68;3.92;;;;;;;19.63;61.61;99429.13;10521481;28;20040;-71
2022/06/20 07:09:49;;;;;;;8.25;5.88;;;;;;;18.02;67.08;99426.22;10539534;28;20485;-71
2022/06/20 07:15:10;;;;;;;8.63;5.30;;;;;;;18.71;66.37;99437.97;10538659;28;20404;-71
2022/06/20 07:20:13;;;;;;;6.75;5.22;;;;;;;19.44;63.18;99444.00;10539272;28;20043;-71
2022/06/20 07:25:21;;;;;;;8.88;4.80;;;;;;;20.04;60.65;99376.94;10520321;28;20113;-71
2022/06/20 07:30:28;;;;;;;4.90;4.20;;;;;;;20.72;58.15;99392.75;10539158;28;20036;-71
2022/06/20 07:35:40;;;;;;;9.27;5.00;;;;;;;20.86;57.06;99384.44;10538964;28;20032;-70
2022/06/20 07:40:51;;;;;;;8.25;4.97;;;;;;;20.78;57.61;99371.75;10538386;28;20051;-70
2022/06/20 07:45:55;;;;;;;5.15;4.60;;;;;;;21.40;55.95;99386.91;10538168;28;20456;-69
2022/06/20 07:51:06;;;;;;;5.03;4.07;;;;;;;21.56;56.19;99388.22;10519823;28;20501;-69
2022/06/20 07:56:34;;;;;;;7.38;4.68;;;;;;;21.59;55.03;99407.53;10544827;28;20040;-70
2022/06/20 08:01:53;;;;;;;7.75;3.90;;;;;;;21.81;54.63;99411.84;10515721;28;20052;-69
2022/06/20 08:07:26;;;;;;;6.68;4.25;;;;;;;21.64;54.45;99394.59;10545390;28;20036;-70
2022/06/20 08:12:39;;;;;;;5.10;4.22;;;;;;;21.66;54.94;99394.50;10377195;28;20542;-71
2022/06/20 08:17:41;;;;;;;9.25;4.70;;;;;;;21.37;56.18;99379.16;10359375;28;20104;-69
2022/06/20 08:22:55;;;;;;;7.05;4.35;;;;;;;21.84;54.40;99382.16;10374762;28;20112;-69
2022/06/20 08:28:08;;;;;;;4.15;3.75;;;;;;;22.10;53.90;99371.78;10375249;28;20465;-70
2022/06/20 08:33:30;;;;;;;7.90;3.95;;;;;;;22.65;52.43;99357.91;10375933;28;20045;-70
2022/06/20 08:39:12;;;;;;;6.97;4.53;;;;;;;23.02;51.59;99325.00;10374053;28;20050;-70
2022/06/20 08:44:47;;;;;;;8.00;3.88;;;;;;;23.05;51.53;99320.19;10254068;29;20110;-70
2022/06/20 08:50:04;;;;;;;11.27;3.92;;;;;;;22.93;52.06;99334.75;10368045;28;20058;-70
2022/06/20 08:55:28;;;;;;;4.47;4.00;;;;;;;23.16;50.66;99368.28;10373536;28;20112;-70
2022/06/20 09:00:38;;;;;;;5.05;4.40;;;;;;;22.82;51.65;99334.91;10373567;28;20050;-70
2022/06/20 09:05:50;;;;;;;7.13;3.72;;;;;;;23.48;51.46;99310.72;10355418;28;20068;-70
2022/06/20 09:11:13;;;;;;;4.88;4.20;;;;;;;23.13;51.26;99332.88;10351588;28;20144;-71
2022/06/20 09:16:28;;;;;;;6.55;4.55;;;;;;;23.32;50.24;99315.88;10396856;28;20045;-69
2022/06/20 09:21:51;;;;;;;4.17;3.77;;;;;;;23.75;50.37;99315.25;10520190;28;20431;-71
2022/06/20 09:26:59;;;;;;;9.25;3.95;;;;;;;24.03;48.85;99342.06;10536812;28;20642;-69
2022/06/20 09:32:18;;;;;;;5.22;4.07;;;;;;;23.96;50.16;99349.06;10518182;28;20063;-70
2022/06/20 09:37:35;;;;;;;5.38;4.88;;;;;;;22.74;52.52;99362.41;10524518;28;20036;-70
2022/06/20 09:42:48;;;;;;;8.07;4.95;;;;;;;22.90;52.36;99354.66;10543087;28;20040;-70
2022/06/20 09:47:58;;;;;;;5.15;4.50;;;;;;;23.12;52.28;99380.28;10556503;28;20057;-70
2022/06/20 09:53:27;;;;;;;3.92;3.35;;;;;;;22.99;53.53;99377.06;10583642;28;20048;-69
2022/06/20 09:59:05;;;;;;;9.52;4.70;;;;;;;22.55;53.98;99355.22;10583389;28;20057;-70
2022/06/20 10:04:27;;;;;;;5.95;4.15;;;;;;;22.75;54.66;99341.81;10565510;28;20135;-71
2022/06/20 10:10:07;;;;;;;4.90;3.70;;;;;;;22.46;54.67;99342.69;10583164;28;20404;-71
2022/06/20 10:15:17;;;;;;;5.10;3.67;;;;;;;22.31;55.17;99352.09;10583094;28;20083;-71
2022/06/20 10:20:31;;;;;;;9.13;5.30;;;;;;;21.85;57.15;99365.13;10564938;28;20089;-70
2022/06/20 10:26:04;;;;;;;10.65;7.10;;;;;;;20.38;62.00;99376.88;10583270;28;20051;-72
2022/06/20 10:31:38;;;;;;;10.25;7.40;;;;;;;19.97;64.01;99382.94;10582716;28;20126;-70
2022/06/20 10:37:01;;;;;;;9.82;7.15;;;;;;;19.85;64.97;99396.28;10542414;28;20051;-71
2022/06/20 10:42:25;;;;;;;9.35;8.45;;;;;;;19.97;63.89;99445.13;10582656;28;20043;-71
2022/06/20 10:47:37;;;;;;;6.88;6.03;;;;;;;19.86;64.42;99442.47;10582839;28;20031;-72
2022/06/20 10:52:51;;;;;;;7.38;6.18;;;;;;;20.28;63.70;99440.00;10573738;22;20036;-81
2022/06/20 10:58:18;;;;;;;7.05;6.38;;;;;;;19.99;64.18;99445.84;10505188;28;20074;-79
2022/06/20 11:03:26;;;;;;;8.45;7.55;;;;;;;19.57;64.65;99442.94;10487663;28;20120;-79
2022/06/20 11:08:43;;;;;;;6.18;5.68;;;;;;;20.46;62.81;99453.66;10503478;28;20048;-79
2022/06/20 11:13:59;;;;;;;6.50;5.90;;;;;;;20.30;62.43;99464.72;10504448;28;20025;-80
2022/06/20 11:19:09;;;;;;;5.00;4.57;;;;;;;20.32;61.78;99478.78;10508021;28;20037;-82
2022/06/20 11:24:15;;;;;;;5.07;4.68;;;;;;;19.87;63.79;99490.34;10508157;28;20100;-82
2022/06/20 11:29:27;;;;;;;5.43;4.97;;;;;;;18.93;66.67;99509.13;10494106;28;20048;-81
2022/06/20 11:34:56;;;;;;;4.40;4.10;;;;;;;18.63;67.75;99526.34;10514656;28;20048;-82
2022/06/20 11:40:07;;;;;;;4.55;4.20;;;;;;;18.45;69.19;99510.88;10515320;28;20084;-81
2022/06/20 11:45:36;;;;;;;6.20;5.45;;;;;;;18.54;68.43;99540.34;10516039;28;20032;-79
2022/06/20 11:50:41;;;;;;;5.57;5.05;;;;;;;18.42;69.25;99546.56;10516311;28;20053;-80
2022/06/20 11:55:54;;;;;;;5.60;5.20;;;;;;;18.37;70.30;99554.00;10515936;28;20040;-80
2022/06/20 12:01:14;;;;;;;6.90;6.30;;;;;;;17.68;76.59;99565.97;10515514;28;20109;-79
2022/06/20 12:06:27;;;;;;;6.63;6.03;;;;;;;17.46;80.59;99579.84;10515406;28;20025;-81
2022/06/20 12:11:29;;;;;;;7.07;6.50;;;;;;;17.02;85.95;99591.63;10515180;28;20033;-82
2022/06/20 12:16:56;;;;;;;6.85;6.32;;;;;;;16.70;91.46;99598.97;10498119;28;20025;-81
2022/06/20 12:27:20;;;;;;;5.85;5.47;;;;;;;16.50;90.12;99627.59;10514608;28;20032;-82
2022/06/20 12:32:34;;;;;;;7.28;5.28;;;;;;;16.57;92.27;99623.63;10514243;28;20090;-80
2022/06/20 12:37:45;;;;;;;5.10;4.80;;;;;;;16.72;91.68;99618.31;10497086;28;20045;-81
2022/06/20 12:42:53;;;;;;;5.60;5.20;;;;;;;16.60;92.21;99623.44;10495136;28;20025;-82
2022/06/20 12:48:18;;;;;;;4.25;4.05;;;;;;;16.28;92.70;99640.50;10513583;28;20089;-82
2022/06/20 12:53:38;;;;;;;4.35;3.95;;;;;;;16.25;92.53;99653.97;10511707;28;20045;-81
2022/06/20 12:58:58;;;;;;;5.05;4.70;;;;;;;16.11;94.72;99660.09;10511903;28;20029;-80
2022/06/20 13:04:31;;;;;;;5.68;5.18;;;;;;;16.02;95.16;99663.28;10513148;28;20046;-80
2022/06/20 13:09:39;;;;;;;6.55;6.05;;;;;;;15.81;98.50;99663.66;10496103;28;20103;-84
2022/06/20 13:14:54;;;;;;;5.03;4.63;;;;;;;15.62;99.92;99673.56;10495490;28;20040;-83
2022/06/20 13:20:17;;;;;;;4.00;3.80;;;;;;;15.59;100.00;99679.06;10512664;28;20090;-85
2022/06/20 13:25:43;;;;;;;4.55;4.28;;;;;;;15.49;100.00;99684.03;10478433;28;20092;-84
2022/06/20 13:31:25;;;;;;;3.40;3.20;;;;;;;15.51;98.89;99671.56;10512082;28;20044;-84
2022/06/20 13:36:49;;;;;;;3.58;3.38;;;;;;;15.71;99.73;99690.75;10489212;28;20104;-83
2022/06/20 13:42:14;;;;;;;3.63;3.42;;;;;;;15.85;97.98;99704.94;10511714;28;20104;-82
2022/06/20 13:47:35;;;;;;;4.47;4.17;;;;;;;15.43;96.90;99707.38;10493883;28;20056;-82
2022/06/20 13:52:52;;;;;;;6.88;6.38;;;;;;;15.18;97.57;99713.19;10493416;28;20033;-81
2022/06/20 13:58:12;;;;;;;4.45;3.58;;;;;;;15.21;99.99;99715.66;10491721;28;20059;-82
2022/06/20 14:03:22;;;;;;;3.05;2.85;;;;;;;15.28;98.22;99720.53;10510924;28;20024;-82
2022/06/20 14:08:27;;;;;;;5.53;5.05;;;;;;;15.25;100.00;99727.81;10510913;28;20035;-81
2022/06/20 14:13:32;;;;;;;6.65;6.15;;;;;;;15.23;100.00;99737.59;10506466;28;20124;-80
2022/06/20 14:18:35;;;;;;;2.78;2.50;;;;;;;15.07;96.88;99733.19;10508401;28;20054;-79
2022/06/20 14:23:38;;;;;;;2.75;2.55;;;;;;;14.77;98.03;99746.28;10490114;28;20060;-79
2022/06/20 14:28:48;;;;;;;3.80;3.47;;;;;;;14.64;100.00;99742.56;10508011;28;20048;-78
2022/06/20 14:33:55;;;;;;;2.95;2.65;;;;;;;14.85;100.00;99736.13;10506980;28;20051;-81
2022/06/20 14:39:10;;;;;;;2.60;2.40;;;;;;;14.75;100.00;99739.38;10489854;28;20036;-81
2022/06/20 14:44:32;;;;;;;3.30;3.00;;;;;;;14.71;100.00;99743.13;10508549;28;20041;-82
2022/06/20 14:49:46;;;;;;;0.70;0.70;;;;;;;14.50;96.58;99732.72;10507284;28;20105;-82
2022/06/20 14:55:12;;;;;;;0.75;0.40;;;;;;;14.39;96.51;99732.41;10508192;28;20060;-81
2022/06/20 15:00:25;;;;;;;1.05;0.50;;;;;;;14.25;97.51;99713.75;10507707;28;20048;-81
2022/06/20 15:06:06;;;;;;;0.20;0.20;;;;;;;14.56;92.37;99705.09;10489434;28;20029;-86
2022/06/20 15:11:21;;;;;;;0.43;0.30;;;;;;;14.38;95.47;99699.81;10393093;28;20053;-85
2022/06/20 15:16:33;;;;;;;0.40;0.20;;;;;;;14.37;93.09;99681.38;10484331;28;20048;-82
2022/06/20 15:21:49;;;;;;;0.50;0.30;;;;;;;14.12;93.49;99685.34;10466433;28;20059;-82
2022/06/20 15:27:05;;;;;;;0.35;0.30;;;;;;;13.95;92.96;99687.97;10486297;28;20040;-81
2022/06/20 15:32:35;;;;;;;0.28;0.20;;;;;;;13.89;92.57;99665.34;10487742;28;20093;-80
2022/06/20 15:37:39;;;;;;;1.35;0.30;;;;;;;14.12;85.79;99705.59;10484614;28;20144;-82
2022/06/20 15:42:54;;;;;;;0.55;0.30;;;;;;;14.04;88.22;99726.31;10487537;28;20041;-79
2022/06/20 15:48:13;;;;;;;0.50;0.50;;;;;;;13.67;86.30;99730.75;10506210;28;20037;-79
2022/06/20 15:54:05;;;;;;;0.52;0.38;;;;;;;13.48;87.01;99741.38;10504098;28;20076;-79
2022/06/20 15:59:15;;;;;;;2.65;0.50;;;;;;;13.15;85.84;99733.28;10454549;28;20060;-79
2022/06/20 16:04:21;;;;;;;1.08;0.50;;;;;;;13.10;84.62;99719.41;10496222;22;20127;-72
2022/06/20 16:09:44;;;;;;;1.90;0.77;;;;;;;13.04;84.51;99724.97;10461506;28;20509;-72
2022/06/20 16:14:51;;;;;;;1.75;0.57;;;;;;;13.00;85.60;99729.53;10464514;28;20465;-70
2022/06/20 16:19:58;;;;;;;1.70;0.50;;;;;;;13.17;82.41;99706.78;10465380;28;20564;-72
2022/06/20 16:25:11;;;;;;;1.67;0.83;;;;;;;13.33;83.71;99715.72;10467370;28;20406;-73
2022/06/20 16:30:22;;;;;;;1.20;0.90;;;;;;;13.52;81.83;99721.81;10467859;28;20071;-72
2022/06/20 16:35:30;;;;;;;1.23;0.60;;;;;;;13.57;79.12;99743.56;10471278;28;20040;-73
2022/06/20 16:41:05;;;;;;;0.90;0.63;;;;;;;13.59;80.69;99736.44;10468459;28;20049;-73
2022/06/20 16:46:19;;;;;;;2.83;0.70;;;;;;;13.64;77.73;99744.16;10441603;28;20056;-73
2022/06/20 16:51:35;;;;;;;1.77;0.50;;;;;;;13.71;74.30;99739.41;10466106;28;20048;-73
2022/06/20 16:57:05;;;;;;;1.55;0.55;;;;;;;13.85;74.79;99747.50;10444108;22;20491;-69
2022/06/20 17:02:18;;;;;;;3.83;0.60;;;;;;;13.84;73.53;99729.94;10419549;28;20462;-69
2022/06/20 17:07:33;;;;;;;2.28;0.60;;;;;;;13.89;73.42;99760.47;10419473;28;20494;-69
2022/06/20 17:13:08;;;;;;;1.73;0.80;;;;;;;14.01;72.47;99727.31;10419437;28;20061;-70
2022/06/20 17:18:31;;;;;;;2.53;0.60;;;;;;;14.27;69.59;99719.81;10293517;28;20143;-70
2022/06/20 17:23:45;;;;;;;1.00;0.60;;;;;;;14.41;68.62;99714.66;10292860;28;20063;-71
2022/06/20 17:29:16;;;;;;;1.85;0.80;;;;;;;14.19;70.21;99707.00;10275922;28;20520;-70
2022/06/20 17:34:34;;;;;;;4.38;1.55;;;;;;;14.14;70.88;99706.38;10291834;28;20059;-70
2022/06/20 17:39:46;;;;;;;3.03;0.82;;;;;;;14.08;71.67;99710.22;10260143;28;20051;-70
2022/06/20 17:44:54;;;;;;;3.20;0.90;;;;;;;14.13;72.32;99707.31;10276074;28;20057;-71
2022/06/20 17:50:09;;;;;;;1.73;0.65;;;;;;;14.22;70.57;99709.50;10292163;28;20082;-71
2022/06/20 17:55:41;;;;;;;2.22;0.65;;;;;;;14.25;72.60;99708.47;10360522;28;20058;-70
2022/06/20 18:00:50;;;;;;;1.17;0.80;;;;;;;14.18;75.25;99709.72;10359702;28;20148;-70
2022/06/20 18:06:04;;;;;;;2.60;0.85;;;;;;;14.11;75.31;99709.19;10376596;28;20044;-70
2022/06/20 18:11:17;;;;;;;2.45;0.68;;;;;;;14.03;77.55;99706.94;10376163;28;20046;-70
2022/06/20 18:16:25;;;;;;;1.55;0.70;;;;;;;14.19;76.29;99706.16;10377134;28;20084;-72
2022/06/20 18:21:46;;;;;;;2.03;0.70;;;;;;;13.97;79.26;99714.31;10376136;28;20046;-70
2022/06/20 18:27:08;;;;;;;2.97;0.85;;;;;;;13.82;80.64;99716.81;10376205;28;20042;-69
2022/06/20 18:32:16;;;;;;;1.55;0.88;;;;;;;13.96;80.49;99707.34;10376842;28;20041;-70
2022/06/20 18:37:26;;;;;;;1.98;0.80;;;;;;;13.83;81.93;99707.09;10375071;28;20048;-71
2022/06/20 18:42:53;;;;;;;0.93;0.60;;;;;;;13.98;80.64;99721.31;10357762;28;20519;-70
2022/06/20 18:48:01;;;;;;;0.70;0.63;;;;;;;13.95;80.12;99716.19;10375067;28;20098;-69
2022/06/20 18:53:05;;;;;;;1.92;0.95;;;;;;;13.92;80.63;99725.13;10375857;28;20046;-69
2022/06/20 18:58:31;;;;;;;1.70;0.70;;;;;;;13.99;80.21;99723.91;10375126;28;20491;-70
2022/06/20 19:03:51;;;;;;;0.70;0.70;;;;;;;13.81;81.78;99722.16;10375395;28;20053;-71
2022/06/20 19:09:24;;;;;;;3.63;0.90;;;;;;;13.77;82.63;99717.97;10357606;28;20034;-71
2022/06/20 19:14:40;;;;;;;2.17;1.35;;;;;;;13.80;82.12;99721.28;10374753;28;20050;-71
2022/06/20 19:20:10;;;;;;;1.33;1.13;;;;;;;13.65;83.21;99722.06;10374677;28;20042;-71
2022/06/20 19:25:16;;;;;;;1.83;0.90;;;;;;;13.69;82.22;99721.00;10373935;28;20042;-71
2022/06/20 19:30:33;;;;;;;4.78;0.90;;;;;;;13.58;81.67;99734.72;10373806;28;20049;-71
2022/06/20 19:35:41;;;;;;;2.08;0.73;;;;;;;13.65;80.61;99735.28;10373158;28;20042;-71
2022/06/20 19:40:53;;;;;;;1.27;0.80;;;;;;;13.55;80.15;99741.94;10373533;28;20353;-71
2022/06/20 19:45:55;;;;;;;2.05;0.90;;;;;;;13.50;80.07;99742.19;10374092;28;20049;-71
2022/06/20 19:50:57;;;;;;;2.47;1.30;;;;;;;13.44;79.76;99758.28;10379540;28;20053;-71
2022/06/20 19:56:01;;;;;;;1.35;0.80;;;;;;;13.41;79.24;99757.56;10380513;28;20407;-71
2022/06/20 20:01:06;;;;;;;1.75;0.85;;;;;;;13.41;79.29;99758.44;10380927;28;20046;-71
2022/06/20 20:06:12;;;;;;;1.85;0.77;;;;;;;13.39;78.66;99757.66;10380780;28;20433;-71
2022/06/20 20:11:36;;;;;;;2.10;0.95;;;;;;;13.30;78.79;99750.19;10380715;28;20077;-71
2022/06/20 20:16:37;;;;;;;1.13;0.70;;;;;;;13.24;78.44;99748.69;10380104;28;20052;-71
2022/06/20 20:21:42;;;;;;;0.90;0.70;;;;;;;13.25;78.38;99753.03;10379356;28;20468;-70
2022/06/20 20:27:05;;;;;;;2.35;0.90;;;;;;;13.20;78.58;99765.56;10380170;28;20041;-71
2022/06/20 20:32:19;;;;;;;2.22;1.30;;;;;;;13.17;78.79;99763.06;10379115;28;20046;-71
2022/06/20 20:37:38;;;;;;;2.05;0.98;;;;;;;13.11;78.83;99758.09;10379239;28;20034;-71
2022/06/20 20:43:01;;;;;;;1.63;1.00;;;;;;;13.14;78.39;99761.41;10378656;28;20057;-70
2022/06/20 20:48:26;;;;;;;2.42;1.17;;;;;;;13.06;79.07;99760.09;10379023;28;20046;-71
2022/06/20 20:53:35;;;;;;;3.78;1.40;;;;;;;13.12;78.81;99759.78;10378716;28;20093;-71
2022/06/20 20:58:49;;;;;;;6.65;1.08;;;;;;;13.07;78.74;99762.66;10378457;28;20046;-69
2022/06/20 21:03:55;;;;;;;2.13;1.10;;;;;;;13.21;78.40;99774.34;10377924;28;20046;-69
2022/06/20 21:09:15;;;;;;;3.38;1.70;;;;;;;13.21;78.08;99769.06;10378359;28;20056;-69
2022/06/20 21:14:25;;;;;;;1.77;1.08;;;;;;;13.19;78.29;99768.25;10377730;28;20041;-69
2022/06/20 21:19:33;;;;;;;3.63;1.20;;;;;;;13.24;77.34;99775.09;10377461;28;20510;-69
2022/06/20 21:24:47;;;;;;;2.92;1.30;;;;;;;13.19;77.79;99784.09;10377832;28;20050;-69
2022/06/20 21:29:51;;;;;;;3.40;1.40;;;;;;;13.15;77.90;99788.69;10377648;28;20045;-69
2022/06/20 21:35:02;;;;;;;2.53;1.20;;;;;;;13.15;78.01;99788.69;10376743;28;20093;-70
2022/06/20 21:40:23;;;;;;;2.88;1.33;;;;;;;13.21;77.56;99793.66;10377483;28;20518;-69
2022/06/20 21:45:38;;;;;;;3.60;1.40;;;;;;;13.18;77.59;99788.53;10376588;28;20080;-69
2022/06/20 21:51:01;;;;;;;1.92;1.30;;;;;;;13.30;77.31;99795.06;10376800;28;20037;-69
2022/06/20 21:56:29;;;;;;;2.80;1.42;;;;;;;13.23;77.58;99796.25;10376164;28;20053;-69
2022/06/20 22:06:58;;;;;;;2.55;1.35;;;;;;;13.18;77.67;99807.00;10375590;28;20048;-70
2022/06/20 22:12:02;;;;;;;3.00;1.50;;;;;;;13.16;77.70;99802.72;10375389;28;20121;-70
2022/06/20 22:17:04;;;;;;;2.13;1.35;;;;;;;13.11;77.60;99806.44;10375213;28;20069;-70
2022/06/20 22:22:12;;;;;;;3.45;1.33;;;;;;;13.03;78.01;99808.56;10374963;28;20092;-70
2022/06/20 22:27:19;;;;;;;1.92;1.40;;;;;;;13.06;77.60;99815.50;10375436;28;20120;-70
2022/06/20 22:32:36;;;;;;;2.50;1.27;;;;;;;13.10;77.86;99817.03;10375182;28;20046;-70
2022/06/20 22:37:39;;;;;;;6.55;1.45;;;;;;;13.09;77.25;99816.19;10374959;28;20042;-70
2022/06/20 22:42:52;;;;;;;3.70;1.42;;;;;;;12.95;77.84;99813.31;10374588;28;20049;-70
2022/06/20 22:47:57;;;;;;;4.65;1.73;;;;;;;13.05;77.50;99816.41;10374643;28;20514;-70
2022/06/20 22:53:04;;;;;;;4.28;1.20;;;;;;;13.05;77.61;99819.91;10375005;28;20049;-71
2022/06/20 22:58:10;;;;;;;4.43;1.40;;;;;;;12.91;78.73;99824.94;10374277;28;20403;-71
2022/06/20 23:03:22;;;;;;;2.93;1.30;;;;;;;12.88;78.50;99833.88;10374449;28;20042;-71
2022/06/20 23:08:24;;;;;;;2.38;1.40;;;;;;;13.00;77.88;99832.44;10374327;28;20287;-71
2022/06/20 23:13:29;;;;;;;4.00;1.83;;;;;;;12.85;78.84;99843.69;10373941;28;20046;-71
2022/06/20 23:23:51;;;;;;;3.38;1.73;;;;;;;12.80;79.19;99843.91;10357519;28;20048;-71
2022/06/20 23:28:53;;;;;;;3.35;1.45;;;;;;;12.88;78.57;99843.53;10381759;28;20042;-71
2022/06/20 23:33:55;;;;;;;2.33;1.42;;;;;;;12.86;78.44;99840.97;10382798;28;20451;-70
2022/06/20 23:38:57;;;;;;;2.92;1.65;;;;;;;12.72;79.45;99838.09;10381841;28;20053;-70
2022/06/20 23:43:58;;;;;;;3.28;1.70;;;;;;;12.83;78.55;99848.16;10381032;28;20058;-70
2022/06/20 23:49:00;;;;;;;4.15;1.92;;;;;;;12.83;78.37;99845.53;10380862;28;20042;-71
2022/06/20 23:54:02;;;;;;;6.20;1.75;;;;;;;12.67;78.87;99840.06;10380647;28;20041;-70
2022/06/20 23:59:05;;;;;;;9.07;1.60;;;;;;;12.59;78.71;99848.31;10380538;28;20046;-71
